Time;durP1;ratioP1;P1;durP2;ratioP2;P2;SDS_P1;SDS_P2;PMS_P1;PMS_P2;Temp;Humidity;BMP_temperature;BMP_pressure;BME280_temperature;BME280_humidity;BME280_pressure;Samples;Min_cycle;Max_cycle;Signal;HPM_P1;HPM_P2
2022/09/15 00:00:03;;;;;;;;;;;15.00;99.90;;;;;;4899288;29;20006;-62
2022/09/15 00:02:30;;;;;;;;;;;;;;;;;;4899012;29;19979;-61
2022/09/15 00:04:55;;;;;;;;;;;14.50;99.90;;;;;;4899038;29;19927;-61
2022/09/15 00:07:21;;;;;;;;;;;14.90;99.90;;;;;;4913496;29;19927;-62
2022/09/15 00:09:46;;;;;;;;;;;15.10;99.90;;;;;;4898715;29;19923;-62
2022/09/15 00:12:12;;;;;;;;;;;14.60;99.90;;;;;;4898711;29;20357;-61
2022/09/15 00:14:37;;;;;;;;;;;14.80;99.90;;;;;;4913521;29;19919;-61
2022/09/15 00:17:03;;;;;;;;;;;14.70;99.90;;;;;;4898876;29;19919;-61
2022/09/15 00:19:28;;;;;;;;;;;14.70;99.90;;;;;;4897901;29;20015;-61
2022/09/15 00:21:54;;;;;;;;;;;14.60;99.90;;;;;;4898694;29;20354;-61
2022/09/15 00:24:19;;;;;;;;;;;14.30;99.90;;;;;;4898493;29;19983;-61
2022/09/15 00:26:45;;;;;;;;;;;;;;;;;;4897019;29;20015;-62
2022/09/15 00:29:11;;;;;;;;;;;14.30;99.90;;;;;;4898634;29;19979;-61
2022/09/15 00:31:36;;;;;;;;;;;14.60;99.90;;;;;;4898598;29;19948;-61
2022/09/15 00:34:02;;;;;;;;;;;14.20;99.90;;;;;;4897440;29;20038;-61
2022/09/15 00:36:27;;;;;;;;;;;14.70;99.90;;;;;;4898302;29;19920;-61
2022/09/15 00:38:53;;;;;;;;;;;14.40;99.90;;;;;;4898442;29;20050;-61
2022/09/15 00:41:19;;;;;;;;;;;;;;;;;;4896917;29;20387;-61
2022/09/15 00:43:55;;;;;;;;;;;14.40;99.90;;;;;;4898482;29;20013;-61
2022/09/15 00:46:22;;;;;;;;;;;14.70;99.90;;;;;;4913296;29;19931;-61
2022/09/15 00:48:50;;;;;;;;;;;14.40;99.90;;;;;;4898359;29;19919;-61
2022/09/15 00:51:17;;;;;;;;;;;14.80;99.90;;;;;;4898294;29;19923;-61
2022/09/15 00:53:45;;;;;;;;;;;14.70;99.90;;;;;;4898097;29;19920;-61
2022/09/15 00:56:11;;;;;;;;;;;14.60;99.90;;;;;;4897040;29;19974;-61
2022/09/15 00:58:38;;;;;;;;;;;14.50;99.90;;;;;;4912929;29;19923;-62
2022/09/15 01:01:06;;;;;;;;;;;14.70;99.90;;;;;;4898224;29;20018;-61
2022/09/15 01:03:32;;;;;;;;;;;15.00;99.90;;;;;;4898137;29;19920;-61
2022/09/15 01:05:59;;;;;;;;;;;;;;;;;;4898124;29;19930;-61
2022/09/15 01:08:25;;;;;;;;;;;;;;;;;;4896948;29;19925;-61
2022/09/15 01:10:51;;;;;;;;;;;14.50;99.90;;;;;;4897844;29;19919;-61
2022/09/15 01:13:16;;;;;;;;;;;14.80;99.90;;;;;;4898096;29;20253;-62
2022/09/15 01:15:48;;;;;;;;;;;14.50;99.90;;;;;;4912587;29;20037;-61
2022/09/15 01:18:14;;;;;;;;;;;;;;;;;;4912529;29;19923;-61
2022/09/15 01:20:40;;;;;;;;;;;;;;;;;;4897876;29;20328;-61
2022/09/15 01:23:05;;;;;;;;;;;15.10;99.90;;;;;;4898102;29;19919;-61
2022/09/15 01:25:45;;;;;;;;;;;14.90;99.90;;;;;;4897653;29;19927;-62
2022/09/15 01:28:23;;;;;;;;;;;14.70;99.90;;;;;;4897798;29;20349;-61
2022/09/15 01:30:53;;;;;;;;;;;14.80;99.90;;;;;;4897910;29;20288;-61
2022/09/15 01:33:39;;;;;;;;;;;14.80;99.90;;;;;;4898347;29;19923;-61
2022/09/15 01:36:05;;;;;;;;;;;;;;;;;;4898218;29;20018;-61
2022/09/15 01:38:31;;;;;;;;;;;14.90;99.90;;;;;;4897617;29;19926;-61
2022/09/15 01:41:03;;;;;;;;;;;14.70;99.90;;;;;;4897844;29;19923;-61
2022/09/15 01:43:29;;;;;;;;;;;14.60;99.90;;;;;;4897731;29;19919;-61
2022/09/15 01:45:55;;;;;;;;;;;14.50;99.90;;;;;;4912797;29;19919;-61
2022/09/15 01:48:21;;;;;;;;;;;;;;;;;;4899913;29;19923;-61
2022/09/15 01:50:47;;;;;;;;;;;;;;;;;;4901562;29;19924;-61
2022/09/15 01:53:17;;;;;;;;;;;14.60;99.90;;;;;;4901141;29;19919;-61
2022/09/15 01:55:47;;;;;;;;;;;14.70;99.90;;;;;;4901331;29;20400;-62
2022/09/15 01:58:13;;;;;;;;;;;14.80;99.90;;;;;;4901239;29;20321;-61
2022/09/15 02:00:42;;;;;;;;;;;14.80;99.90;;;;;;4901381;29;19927;-61
2022/09/15 02:03:16;;;;;;;;;;;14.60;99.90;;;;;;4900397;29;19919;-61
2022/09/15 02:05:42;;;;;;;;;;;;;;;;;;4901276;29;20307;-61
2022/09/15 02:08:27;;;;;;;;;;;14.80;99.90;;;;;;4915174;29;19920;-61
2022/09/15 02:10:57;;;;;;;;;;;14.60;99.90;;;;;;4900781;29;19925;-62
2022/09/15 02:13:32;;;;;;;;;;;14.50;99.90;;;;;;4901131;29;19975;-61
2022/09/15 02:15:58;;;;;;;;;;;14.50;99.90;;;;;;4901136;29;19919;-61
2022/09/15 02:18:24;;;;;;;;;;;14.80;99.90;;;;;;4900958;29;20428;-61
2022/09/15 02:20:56;;;;;;;;;;;14.80;99.90;;;;;;4900867;29;19967;-61
2022/09/15 02:23:25;;;;;;;;;;;14.40;99.90;;;;;;4900945;29;19974;-61
2022/09/15 02:25:55;;;;;;;;;;;14.70;99.90;;;;;;4900713;29;20280;-61
2022/09/15 02:28:24;;;;;;;;;;;14.40;99.90;;;;;;4900434;29;19930;-61
2022/09/15 02:30:50;;;;;;;;;;;;;;;;;;4915524;23;19923;-62
2022/09/15 02:33:18;;;;;;;;;;;14.80;99.90;;;;;;4905383;23;20038;-61
2022/09/15 02:35:44;;;;;;;;;;;14.50;99.90;;;;;;4844823;29;19920;-61
2022/09/15 02:38:10;;;;;;;;;;;14.30;99.90;;;;;;4844815;29;19929;-61
2022/09/15 02:40:38;;;;;;;;;;;14.20;99.90;;;;;;4859195;29;20405;-61
2022/09/15 02:43:04;;;;;;;;;;;;;;;;;;4843673;29;19924;-61
2022/09/15 02:45:30;;;;;;;;;;;;;;;;;;4828517;29;19931;-61
2022/09/15 02:47:56;;;;;;;;;;;;;;;;;;4867790;24;20285;-61
2022/09/15 02:50:24;;;;;;;;;;;14.20;99.90;;;;;;4860984;23;19919;-61
2022/09/15 02:52:50;;;;;;;;;;;;;;;;;;4922613;23;19919;-61
2022/09/15 02:55:16;;;;;;;;;;;14.60;99.90;;;;;;4899187;29;20272;-61
2022/09/15 02:57:41;;;;;;;;;;;14.70;99.90;;;;;;4900382;29;20382;-61
2022/09/15 03:00:13;;;;;;;;;;;14.40;99.90;;;;;;4898910;29;19919;-61
2022/09/15 03:02:40;;;;;;;;;;;;;;;;;;4883410;29;19966;-61
2022/09/15 03:05:07;;;;;;;;;;;14.40;99.90;;;;;;4899888;29;19970;-61
2022/09/15 03:07:32;;;;;;;;;;;14.40;99.90;;;;;;4899336;29;19920;-61
2022/09/15 03:09:58;;;;;;;;;;;14.40;99.90;;;;;;4883093;29;20325;-61
2022/09/15 03:12:24;;;;;;;;;;;14.30;99.90;;;;;;4900247;29;19966;-61
2022/09/15 03:14:50;;;;;;;;;;;14.20;99.90;;;;;;4899001;29;19919;-61
2022/09/15 03:17:16;;;;;;;;;;;14.40;99.90;;;;;;4898597;29;19975;-61
2022/09/15 03:19:41;;;;;;;;;;;;;;;;;;4899620;29;19927;-61
2022/09/15 03:22:08;;;;;;;;;;;14.50;99.90;;;;;;4883181;29;20014;-61
2022/09/15 03:24:34;;;;;;;;;;;;;;;;;;4899760;29;19920;-61
2022/09/15 03:26:59;;;;;;;;;;;14.60;99.90;;;;;;4898503;29;20273;-61
2022/09/15 03:29:25;;;;;;;;;;;14.60;99.90;;;;;;4899561;29;19971;-61
2022/09/15 03:31:50;;;;;;;;;;;14.60;99.90;;;;;;4899554;29;19920;-61
2022/09/15 03:34:16;;;;;;;;;;;14.50;99.90;;;;;;4899339;29;19919;-61
2022/09/15 03:36:42;;;;;;;;;;;;;;;;;;4899684;29;19927;-61
2022/09/15 03:39:08;;;;;;;;;;;;;;;;;;4883088;29;20324;-61
2022/09/15 03:41:33;;;;;;;;;;;14.80;99.90;;;;;;4899450;29;19919;-61
2022/09/15 03:43:59;;;;;;;;;;;;;;;;;;4899438;29;20360;-61
2022/09/15 03:46:26;;;;;;;;;;;14.60;99.90;;;;;;4899244;29;19924;-61
2022/09/15 03:48:51;;;;;;;;;;;14.40;99.90;;;;;;4899239;29;19919;-61
2022/09/15 03:51:17;;;;;;;;;;;14.50;99.90;;;;;;4899398;29;19997;-61
2022/09/15 03:53:42;;;;;;;;;;;14.60;99.90;;;;;;4899308;29;19919;-61
2022/09/15 03:56:11;;;;;;;;;;;14.10;99.90;;;;;;4882729;29;19924;-61
2022/09/15 03:58:36;;;;;;;;;;;14.10;99.90;;;;;;4882613;29;19923;-61
2022/09/15 04:01:02;;;;;;;;;;;;;;;;;;4882504;29;20329;-61
2022/09/15 04:03:28;;;;;;;;;;;14.30;99.90;;;;;;4898857;29;19927;-61
2022/09/15 04:05:55;;;;;;;;;;;;;;;;;;4899333;29;19923;-61
2022/09/15 04:08:20;;;;;;;;;;;14.60;99.90;;;;;;4898805;29;20249;-61
2022/09/15 04:10:47;;;;;;;;;;;14.30;99.90;;;;;;4898536;29;19926;-61
2022/09/15 04:13:12;;;;;;;;;;;14.40;99.90;;;;;;4898873;29;19925;-61
2022/09/15 04:15:38;;;;;;;;;;;14.20;99.90;;;;;;4898777;29;20018;-61
2022/09/15 04:18:03;;;;;;;;;;;14.10;99.90;;;;;;4898586;29;19923;-61
2022/09/15 04:20:29;;;;;;;;;;;14.40;99.90;;;;;;4882341;29;19920;-61
2022/09/15 04:22:56;;;;;;;;;;;;;;;;;;4898801;29;19928;-61
2022/09/15 04:25:21;;;;;;;;;;;14.30;99.90;;;;;;4898759;29;20287;-61
2022/09/15 04:27:47;;;;;;;;;;;;;;;;;;4898849;29;19919;-61
2022/09/15 04:30:12;;;;;;;;;;;14.30;99.90;;;;;;4898439;29;19919;-61
2022/09/15 04:32:39;;;;;;;;;;;14.20;99.90;;;;;;4898352;29;19926;-61
2022/09/15 04:35:05;;;;;;;;;;;;;;;;;;4898418;29;20288;-61
2022/09/15 04:37:31;;;;;;;;;;;14.40;99.90;;;;;;4898524;29;19926;-62
2022/09/15 04:39:57;;;;;;;;;;;;;;;;;;4898605;29;20284;-61
2022/09/15 04:42:22;;;;;;;;;;;14.30;99.90;;;;;;4898347;29;20009;-61
2022/09/15 04:44:48;;;;;;;;;;;14.10;99.90;;;;;;4898263;29;20257;-61
2022/09/15 04:47:13;;;;;;;;;;;14.20;99.90;;;;;;4898047;29;20277;-61
2022/09/15 04:49:39;;;;;;;;;;;14.40;99.90;;;;;;4898530;29;20246;-61
2022/09/15 04:52:04;;;;;;;;;;;14.10;99.90;;;;;;4898339;29;19971;-61
2022/09/15 04:54:30;;;;;;;;;;;;;;;;;;4881107;29;20335;-61
2022/09/15 04:56:56;;;;;;;;;;;14.80;99.90;;;;;;4881710;29;19920;-61
2022/09/15 04:59:22;;;;;;;;;;;14.80;99.90;;;;;;4898028;29;20333;-61
2022/09/15 05:01:48;;;;;;;;;;;;;;;;;;4897938;29;20276;-61
2022/09/15 05:04:13;;;;;;;;;;;14.50;99.90;;;;;;4898250;29;20010;-61
2022/09/15 05:06:39;;;;;;;;;;;14.30;99.90;;;;;;4898294;29;19975;-61
2022/09/15 05:09:05;;;;;;;;;;;14.40;99.90;;;;;;4898070;29;19923;-62
2022/09/15 05:11:31;;;;;;;;;;;14.20;99.90;;;;;;4898048;29;19926;-62
2022/09/15 05:13:57;;;;;;;;;;;14.50;99.90;;;;;;4897961;29;19919;-62
2022/09/15 05:16:23;;;;;;;;;;;;;;;;;;4881036;29;19924;-61
2022/09/15 05:18:50;;;;;;;;;;;14.50;99.90;;;;;;4898066;29;19919;-62
2022/09/15 05:21:16;;;;;;;;;;;14.60;99.90;;;;;;4896660;29;19923;-62
2022/09/15 05:23:42;;;;;;;;;;;14.40;99.90;;;;;;4899920;29;20359;-62
2022/09/15 05:26:08;;;;;;;;;;;;;;;;;;4901808;29;20353;-62
2022/09/15 05:28:35;;;;;;;;;;;13.90;99.90;;;;;;4901721;29;19931;-62
2022/09/15 05:31:00;;;;;;;;;;;14.20;99.90;;;;;;4901629;29;20399;-62
2022/09/15 05:33:26;;;;;;;;;;;14.50;99.90;;;;;;4885201;29;19967;-62
2022/09/15 05:35:52;;;;;;;;;;;14.40;99.90;;;;;;4901807;29;19920;-62
2022/09/15 05:38:18;;;;;;;;;;;14.40;99.90;;;;;;4901744;29;20279;-62
2022/09/15 05:40:44;;;;;;;;;;;;;;;;;;4901666;29;19930;-62
2022/09/15 05:43:10;;;;;;;;;;;14.30;99.90;;;;;;4900341;29;19923;-62
2022/09/15 05:45:35;;;;;;;;;;;14.40;99.90;;;;;;4901346;29;19923;-61
2022/09/15 05:48:02;;;;;;;;;;;14.60;99.90;;;;;;4900678;29;19926;-62
2022/09/15 05:50:29;;;;;;;;;;;;;;;;;;4900215;29;19919;-62
2022/09/15 05:52:55;;;;;;;;;;;14.50;99.90;;;;;;4901744;29;20009;-62
2022/09/15 05:55:20;;;;;;;;;;;14.70;99.90;;;;;;4900134;29;20010;-62
2022/09/15 05:57:46;;;;;;;;;;;14.70;99.90;;;;;;4901272;29;19919;-62
2022/09/15 06:00:12;;;;;;;;;;;;;;;;;;4901310;29;19923;-62
2022/09/15 06:02:37;;;;;;;;;;;14.70;99.90;;;;;;4901334;29;20229;-62
2022/09/15 06:05:03;;;;;;;;;;;14.80;99.90;;;;;;4901474;29;20333;-62
2022/09/15 06:07:28;;;;;;;;;;;14.60;99.90;;;;;;4884422;29;19926;-62
2022/09/15 06:09:54;;;;;;;;;;;15.00;99.90;;;;;;4900990;29;19923;-62
2022/09/15 06:12:20;;;;;;;;;;;;;;;;;;4884196;29;19927;-62
2022/09/15 06:14:49;;;;;;;;;;;15.00;99.90;;;;;;4900807;29;19923;-62
2022/09/15 06:17:15;;;;;;;;;;;;;;;;;;4901037;29;19966;-62
2022/09/15 06:19:40;;;;;;;;;;;15.20;99.90;;;;;;4900991;29;19923;-62
2022/09/15 06:22:06;;;;;;;;;;;15.20;99.90;;;;;;4900881;29;19919;-62
2022/09/15 06:24:31;;;;;;;;;;;14.90;99.90;;;;;;4884283;29;19926;-62
2022/09/15 06:26:57;;;;;;;;;;;15.10;99.90;;;;;;4900772;29;19919;-62
2022/09/15 06:29:23;;;;;;;;;;;15.30;99.90;;;;;;4900603;29;20317;-62
2022/09/15 06:31:49;;;;;;;;;;;15.40;99.90;;;;;;4900876;29;19919;-62
2022/09/15 06:34:14;;;;;;;;;;;15.50;99.90;;;;;;4910278;23;20570;-63
2022/09/15 06:36:40;;;;;;;;;;;15.50;99.90;;;;;;4880981;29;19920;-63
2022/09/15 06:39:07;;;;;;;;;;;;;;;;;;4880679;29;19924;-62
2022/09/15 06:41:32;;;;;;;;;;;15.50;99.90;;;;;;4881728;29;20023;-62
2022/09/15 06:43:58;;;;;;;;;;;15.50;99.90;;;;;;4881662;29;20006;-62
2022/09/15 06:46:24;;;;;;;;;;;15.60;99.90;;;;;;4916608;23;20324;-62
2022/09/15 06:48:50;;;;;;;;;;;15.70;99.90;;;;;;4897220;23;20022;-62
2022/09/15 06:51:16;;;;;;;;;;;;;;;;;;4939234;23;20011;-62
2022/09/15 06:53:42;;;;;;;;;;;;;;;;;;4900415;29;19925;-62
2022/09/15 06:56:13;;;;;;;;;;;15.80;99.90;;;;;;4900184;29;19919;-62
2022/09/15 06:58:39;;;;;;;;;;;;;;;;;;4900063;29;19920;-62
2022/09/15 07:01:09;;;;;;;;;;;16.20;99.90;;;;;;4899352;29;19945;-62
2022/09/15 07:03:36;;;;;;;;;;;15.80;99.90;;;;;;4899218;29;20197;-62
2022/09/15 07:06:02;;;;;;;;;;;;;;;;;;4900086;29;19920;-62
2022/09/15 07:08:28;;;;;;;;;;;;;;;;;;4914564;29;20014;-62
2022/09/15 07:10:54;;;;;;;;;;;16.00;99.90;;;;;;4900228;29;20006;-62
2022/09/15 07:13:19;;;;;;;;;;;16.20;99.90;;;;;;4914322;29;20348;-62
2022/09/15 07:15:48;;;;;;;;;;;16.20;99.90;;;;;;4900093;29;20014;-62
2022/09/15 07:18:14;;;;;;;;;;;15.90;99.90;;;;;;4899984;29;20371;-62
2022/09/15 07:20:40;;;;;;;;;;;16.00;99.90;;;;;;4899001;29;20014;-62
2022/09/15 07:23:06;;;;;;;;;;;16.30;99.90;;;;;;4899872;29;20010;-62
2022/09/15 07:25:32;;;;;;;;;;;;;;;;;;4899969;29;20009;-62
2022/09/15 07:27:58;;;;;;;;;;;;;;;;;;4898579;29;20372;-62
2022/09/15 07:30:23;;;;;;;;;;;16.50;99.90;;;;;;4899715;29;19923;-62
2022/09/15 07:32:49;;;;;;;;;;;;;;;;;;4899600;29;19920;-62
2022/09/15 07:35:14;;;;;;;;;;;16.20;99.90;;;;;;4899484;29;20271;-62
2022/09/15 07:37:40;;;;;;;;;;;;;;;;;;4898552;29;19926;-62
2022/09/15 07:40:06;;;;;;;;;;;16.00;99.90;;;;;;4899604;29;19919;-62
2022/09/15 07:42:31;;;;;;;;;;;16.30;99.90;;;;;;4899251;29;19919;-62
2022/09/15 07:44:57;;;;;;;;;;;16.00;99.90;;;;;;4898824;29;19919;-62
2022/09/15 07:47:22;;;;;;;;;;;16.10;99.90;;;;;;4899215;29;19923;-62
2022/09/15 07:49:49;;;;;;;;;;;;;;;;;;4899307;29;19923;-62
2022/09/15 07:52:14;;;;;;;;;;;16.50;99.90;;;;;;4899079;29;19919;-62
2022/09/15 07:54:40;;;;;;;;;;;16.50;99.90;;;;;;4899411;29;19984;-62
2022/09/15 07:57:05;;;;;;;;;;;16.40;99.90;;;;;;4899070;29;19919;-62
2022/09/15 07:59:31;;;;;;;;;;;16.60;99.90;;;;;;4899269;29;20261;-62
2022/09/15 08:01:57;;;;;;;;;;;16.90;99.90;;;;;;4899195;29;20006;-74
2022/09/15 08:04:22;;;;;;;;;;;17.20;99.90;;;;;;4913760;29;20360;-64
2022/09/15 08:06:48;;;;;;;;;;;17.10;99.90;;;;;;4898959;29;19920;-63
2022/09/15 08:09:16;;;;;;;;;;;17.40;99.90;;;;;;4898011;29;19978;-62
2022/09/15 08:11:41;;;;;;;;;;;17.40;99.90;;;;;;4897460;29;20348;-62
2022/09/15 08:14:07;;;;;;;;;;;17.90;99.90;;;;;;4898950;29;20010;-63
2022/09/15 08:16:33;;;;;;;;;;;;;;;;;;4898929;29;19923;-63
2022/09/15 08:18:58;;;;;;;;;;;17.90;99.90;;;;;;4898904;29;19923;-62
2022/09/15 08:21:26;;;;;;;;;;;;;;;;;;4898755;29;20356;-63
2022/09/15 08:23:54;;;;;;;;;;;17.60;99.90;;;;;;4897738;29;19920;-62
2022/09/15 08:26:20;;;;;;;;;;;;;;;;;;4898443;29;19928;-63
2022/09/15 08:28:46;;;;;;;;;;;17.30;99.90;;;;;;4898723;29;19946;-63
2022/09/15 08:31:12;;;;;;;;;;;17.60;99.90;;;;;;4898671;29;19958;-62
2022/09/15 08:33:37;;;;;;;;;;;17.70;99.90;;;;;;4898575;29;19967;-62
2022/09/15 08:36:04;;;;;;;;;;;17.60;99.90;;;;;;4897473;29;20354;-63
2022/09/15 08:38:31;;;;;;;;;;;;;;;;;;4898306;29;19942;-63
2022/09/15 08:41:02;;;;;;;;;;;17.50;99.90;;;;;;4897600;29;19975;-62
2022/09/15 08:43:30;;;;;;;;;;;17.60;99.90;;;;;;4898492;29;20010;-62
2022/09/15 08:45:58;;;;;;;;;;;17.90;99.90;;;;;;4898393;29;19963;-62
2022/09/15 08:48:26;;;;;;;;;;;18.10;99.90;;;;;;4898256;29;19935;-63
2022/09/15 08:50:53;;;;;;;;;;;18.20;99.90;;;;;;4898506;29;19919;-63
2022/09/15 08:53:20;;;;;;;;;;;18.10;99.90;;;;;;4897950;29;19924;-62
2022/09/15 08:55:46;;;;;;;;;;;17.80;99.90;;;;;;4898353;29;19973;-63
2022/09/15 08:58:14;;;;;;;;;;;18.00;99.90;;;;;;4898095;29;19958;-62
2022/09/15 09:00:40;;;;;;;;;;;;;;;;;;4898194;29;19927;-62
2022/09/15 09:03:06;;;;;;;;;;;;;;;;;;4898124;29;19927;-62
2022/09/15 09:05:39;;;;;;;;;;;17.40;99.90;;;;;;4898100;29;19919;-63
2022/09/15 09:08:05;;;;;;;;;;;17.90;99.90;;;;;;4897813;29;19926;-63
2022/09/15 09:10:30;;;;;;;;;;;17.60;99.90;;;;;;4912687;29;20010;-63
2022/09/15 09:13:03;;;;;;;;;;;18.10;99.90;;;;;;4898311;29;19946;-63
2022/09/15 09:15:29;;;;;;;;;;;;;;;;;;4898067;29;20010;-63
2022/09/15 09:17:58;;;;;;;;;;;18.10;99.90;;;;;;4898229;29;20063;-63
2022/09/15 09:20:24;;;;;;;;;;;;;;;;;;4898183;29;19927;-63
2022/09/15 09:22:52;;;;;;;;;;;18.50;99.90;;;;;;4912373;29;19919;-63
2022/09/15 09:25:18;;;;;;;;;;;18.20;99.90;;;;;;4898215;29;19930;-63
2022/09/15 09:27:45;;;;;;;;;;;18.20;99.90;;;;;;4898011;29;19925;-63
2022/09/15 09:30:14;;;;;;;;;;;18.40;99.90;;;;;;4897773;29;19926;-62
2022/09/15 09:32:44;;;;;;;;;;;18.20;99.90;;;;;;4898015;29;19926;-62
2022/09/15 09:35:10;;;;;;;;;;;;;;;;;;4912802;29;20018;-62
2022/09/15 09:37:35;;;;;;;;;;;18.40;99.90;;;;;;4896660;29;20011;-63
2022/09/15 09:40:01;;;;;;;;;;;18.30;99.90;;;;;;4897824;29;19920;-62
2022/09/15 09:42:27;;;;;;;;;;;;;;;;;;4897866;29;19927;-63
2022/09/15 09:44:53;;;;;;;;;;;;;;;;;;4897737;29;19926;-63
2022/09/15 09:47:19;;;;;;;;;;;18.70;99.90;;;;;;4897912;29;19923;-63
2022/09/15 09:49:48;;;;;;;;;;;18.30;99.90;;;;;;4897821;29;19920;-62
2022/09/15 09:52:14;;;;;;;;;;;;;;;;;;4897552;29;20383;-62
2022/09/15 09:54:41;;;;;;;;;;;;;;;;;;4896513;29;19920;-62
2022/09/15 09:57:12;;;;;;;;;;;18.20;99.90;;;;;;4897665;29;19958;-62
2022/09/15 09:59:38;;;;;;;;;;;;;;;;;;4912426;29;20003;-62
2022/09/15 10:02:10;;;;;;;;;;;18.50;99.90;;;;;;4897553;29;19919;-62
2022/09/15 10:04:36;;;;;;;;;;;18.10;99.90;;;;;;4912192;29;19923;-62
2022/09/15 10:07:02;;;;;;;;;;;18.40;99.90;;;;;;4897394;29;20276;-62
2022/09/15 10:09:28;;;;;;;;;;;18.20;99.90;;;;;;4899633;29;20360;-62
2022/09/15 10:11:55;;;;;;;;;;;18.20;99.90;;;;;;4901312;29;19943;-62
2022/09/15 10:14:21;;;;;;;;;;;;;;;;;;4901314;29;19923;-62
2022/09/15 10:17:06;;;;;;;;;;;18.50;99.90;;;;;;4901112;29;20368;-62
2022/09/15 10:19:35;;;;;;;;;;;18.50;99.90;;;;;;4901321;29;19919;-62
2022/09/15 10:22:01;;;;;;;;;;;18.90;99.90;;;;;;4900664;29;19919;-62
2022/09/15 10:24:32;;;;;;;;;;;18.50;99.90;;;;;;4900821;29;19926;-62
2022/09/15 10:27:14;;;;;;;;;;;18.90;99.90;;;;;;4900985;29;20284;-63
2022/09/15 10:29:40;;;;;;;;;;;18.80;99.90;;;;;;4927495;23;19966;-63
2022/09/15 10:32:34;;;;;;;;;;;19.20;99.90;;;;;;4899949;29;19951;-63
2022/09/15 10:35:02;;;;;;;;;;;19.60;99.90;;;;;;4887834;29;19923;-63
2022/09/15 10:37:32;;;;;;;;;;;19.30;99.90;;;;;;4900773;29;19919;-63
2022/09/15 10:39:59;;;;;;;;;;;19.60;99.90;;;;;;4900764;29;19923;-63
2022/09/15 10:42:31;;;;;;;;;;;19.30;99.90;;;;;;4900460;29;20388;-62
2022/09/15 10:44:57;;;;;;;;;;;;;;;;;;4900478;29;19927;-63
2022/09/15 10:47:33;;;;;;;;;;;18.70;99.90;;;;;;4900362;29;20345;-62
2022/09/15 10:50:14;;;;;;;;;;;19.00;99.90;;;;;;4914927;29;19920;-62
2022/09/15 10:52:40;;;;;;;;;;;;;;;;;;4900519;29;19970;-63
2022/09/15 10:55:06;;;;;;;;;;;19.40;99.90;;;;;;4914891;29;19978;-63
2022/09/15 10:57:32;;;;;;;;;;;;;;;;;;4900242;29;20014;-63
2022/09/15 11:00:08;;;;;;;;;;;19.20;99.90;;;;;;4900220;29;19967;-62
2022/09/15 11:02:54;;;;;;;;;;;18.80;99.90;;;;;;4915150;29;19919;-62
2022/09/15 11:05:31;;;;;;;;;;;19.00;99.90;;;;;;4899962;29;19920;-63
2022/09/15 11:08:15;;;;;;;;;;;19.00;99.90;;;;;;4900215;29;19983;-63
2022/09/15 11:10:41;;;;;;;;;;;19.00;99.90;;;;;;4914702;29;19930;-63
2022/09/15 11:13:18;;;;;;;;;;;19.30;99.90;;;;;;4900115;29;19923;-63
2022/09/15 11:15:47;;;;;;;;;;;19.10;99.90;;;;;;4900123;29;19926;-63
2022/09/15 11:18:15;;;;;;;;;;;19.00;99.90;;;;;;4914252;29;19919;-63
2022/09/15 11:20:43;;;;;;;;;;;19.20;99.90;;;;;;4898783;29;19967;-62
2022/09/15 11:23:10;;;;;;;;;;;;;;;;;;4898922;29;19919;-63
2022/09/15 11:25:36;;;;;;;;;;;;;;;;;;4900197;29;20300;-63
2022/09/15 11:28:12;;;;;;;;;;;19.10;99.90;;;;;;4914304;29;19920;-63
2022/09/15 11:30:45;;;;;;;;;;;18.90;99.90;;;;;;4898289;29;19942;-63
2022/09/15 11:33:10;;;;;;;;;;;;;;;;;;4899283;29;20338;-63
2022/09/15 11:35:36;;;;;;;;;;;;;;;;;;4899729;29;19977;-63
2022/09/15 11:38:21;;;;;;;;;;;19.20;99.90;;;;;;4899693;29;20018;-63
2022/09/15 11:40:50;;;;;;;;;;;19.40;99.90;;;;;;4899546;29;19927;-63
2022/09/15 11:43:15;;;;;;;;;;;;;;;;;;4898586;29;19958;-63
2022/09/15 11:45:44;;;;;;;;;;;19.80;99.90;;;;;;4899490;29;20276;-63
2022/09/15 11:48:19;;;;;;;;;;;19.90;99.90;;;;;;4913684;29;19927;-63
2022/09/15 11:50:47;;;;;;;;;;;19.90;99.90;;;;;;4899215;29;19920;-63
2022/09/15 11:53:19;;;;;;;;;;;18.80;99.90;;;;;;4899235;29;19942;-63
2022/09/15 11:55:50;;;;;;;;;;;17.50;99.90;;;;;;4898043;29;20353;-63
2022/09/15 11:58:17;;;;;;;;;;;;;;;;;;4913862;29;20278;-62
2022/09/15 12:00:50;;;;;;;;;;;16.80;99.90;;;;;;4899511;29;19919;-63
2022/09/15 12:03:35;;;;;;;;;;;16.90;99.90;;;;;;4913392;29;20126;-62
2022/09/15 12:06:01;;;;;;;;;;;;;;;;;;4888784;29;20365;-62
2022/09/15 12:08:38;;;;;;;;;;;17.20;99.90;;;;;;4898944;29;19927;-62
2022/09/15 12:11:06;;;;;;;;;;;17.40;99.90;;;;;;4899197;29;19926;-62
2022/09/15 12:13:32;;;;;;;;;;;17.40;99.90;;;;;;4899118;29;19931;-62
2022/09/15 12:16:00;;;;;;;;;;;18.00;99.90;;;;;;4899017;29;20002;-62
2022/09/15 12:18:26;;;;;;;;;;;17.50;99.90;;;;;;4898937;29;19926;-63
2022/09/15 12:20:52;;;;;;;;;;;;;;;;;;4898878;29;19923;-62
2022/09/15 12:23:25;;;;;;;;;;;17.80;99.90;;;;;;4898641;29;19966;-62
2022/09/15 12:26:03;;;;;;;;;;;18.00;99.90;;;;;;4898900;29;19943;-62
2022/09/15 12:28:49;;;;;;;;;;;17.90;99.90;;;;;;4898797;29;19919;-62
2022/09/15 12:31:34;;;;;;;;;;;18.10;99.90;;;;;;4898090;29;19919;-62
2022/09/15 12:34:18;;;;;;;;;;;18.40;99.90;;;;;;4897956;29;19926;-62
2022/09/15 12:36:45;;;;;;;;;;;18.10;99.90;;;;;;4897582;29;20368;-63
2022/09/15 12:39:19;;;;;;;;;;;18.80;99.90;;;;;;4897363;29;19920;-62
2022/09/15 12:41:46;;;;;;;;;;;18.40;99.90;;;;;;4898482;29;19919;-62
2022/09/15 12:44:35;;;;;;;;;;;18.70;99.90;;;;;;4898654;29;19919;-62
2022/09/15 12:47:02;;;;;;;;;;;18.60;99.90;;;;;;4890452;29;19926;-62
2022/09/15 12:49:27;;;;;;;;;;;;;;;;;;4898365;29;19931;-62
2022/09/15 12:51:53;;;;;;;;;;;18.60;99.90;;;;;;4898348;29;20356;-62
2022/09/15 12:54:25;;;;;;;;;;;18.40;99.90;;;;;;4898195;29;19919;-62
2022/09/15 12:56:51;;;;;;;;;;;18.30;99.90;;;;;;4898499;29;19974;-62
2022/09/15 12:59:21;;;;;;;;;;;18.40;99.90;;;;;;4898138;29;20443;-63
2022/09/15 13:01:47;;;;;;;;;;;17.80;99.90;;;;;;4912783;29;20011;-62
2022/09/15 13:04:13;;;;;;;;;;;;;;;;;;4898405;29;20439;-62
2022/09/15 13:06:39;;;;;;;;;;;18.10;99.90;;;;;;4898030;29;19919;-62
2022/09/15 13:09:04;;;;;;;;;;;18.10;99.90;;;;;;4897969;29;19926;-62
2022/09/15 13:11:33;;;;;;;;;;;;;;;;;;4898291;29;20307;-62
2022/09/15 13:13:59;;;;;;;;;;;;;;;;;;4896979;29;19924;-62
2022/09/15 13:16:24;;;;;;;;;;;18.20;99.90;;;;;;4897151;29;20025;-62
2022/09/15 13:18:53;;;;;;;;;;;18.30;99.90;;;;;;4898016;29;19990;-62
2022/09/15 13:21:20;;;;;;;;;;;18.40;99.90;;;;;;4898062;29;19926;-62
2022/09/15 13:23:47;;;;;;;;;;;18.00;99.90;;;;;;4898122;29;19927;-62
2022/09/15 13:26:14;;;;;;;;;;;17.80;99.90;;;;;;4897994;29;19935;-62
2022/09/15 13:28:40;;;;;;;;;;;17.80;99.90;;;;;;4912358;29;19920;-62
2022/09/15 13:31:19;;;;;;;;;;;17.20;99.90;;;;;;4898189;29;19925;-62
2022/09/15 13:33:59;;;;;;;;;;;17.30;99.90;;;;;;4897936;29;19970;-62
2022/09/15 13:36:42;;;;;;;;;;;16.60;99.90;;;;;;4897961;29;19927;-62
2022/09/15 13:39:26;;;;;;;;;;;16.40;99.90;;;;;;4898007;29;19927;-62
2022/09/15 13:42:11;;;;;;;;;;;16.20;99.90;;;;;;4897911;29;19919;-62
2022/09/15 13:44:59;;;;;;;;;;;15.90;99.90;;;;;;4899567;29;20035;-62
2022/09/15 13:47:40;;;;;;;;;;;16.50;99.90;;;;;;4901687;29;20391;-62
2022/09/15 13:50:32;;;;;;;;;;;16.50;99.90;;;;;;4900357;29;20246;-63
2022/09/15 13:52:57;;;;;;;;;;;16.60;99.90;;;;;;4898408;29;20292;-62
2022/09/15 13:55:26;;;;;;;;;;;16.90;99.90;;;;;;4900415;29;19919;-62
2022/09/15 13:57:54;;;;;;;;;;;16.30;99.90;;;;;;4901140;29;19925;-62
2022/09/15 14:00:22;;;;;;;;;;;16.50;99.90;;;;;;4901331;29;19923;-62
2022/09/15 14:02:53;;;;;;;;;;;16.80;99.90;;;;;;4901310;29;19919;-62
2022/09/15 14:05:19;;;;;;;;;;;;;;;;;;4899960;29;20354;-61
2022/09/15 14:07:48;;;;;;;;;;;16.70;99.90;;;;;;4901352;29;19974;-61
2022/09/15 14:10:14;;;;;;;;;;;;;;;;;;4901224;29;19923;-62
2022/09/15 14:12:40;;;;;;;;;;;17.10;99.90;;;;;;4900850;29;19923;-62
2022/09/15 14:15:05;;;;;;;;;;;16.90;99.90;;;;;;4901125;29;19969;-62
2022/09/15 14:17:33;;;;;;;;;;;17.40;99.90;;;;;;4901065;29;20424;-62
2022/09/15 14:19:59;;;;;;;;;;;17.60;99.90;;;;;;4901197;29;19920;-62
2022/09/15 14:22:25;;;;;;;;;;;;;;;;;;4900173;29;19924;-62
2022/09/15 14:24:51;;;;;;;;;;;17.70;99.90;;;;;;4900979;29;19942;-62
2022/09/15 14:27:21;;;;;;;;;;;17.20;99.90;;;;;;4900733;29;19923;-62
2022/09/15 14:29:49;;;;;;;;;;;17.30;99.90;;;;;;4900462;29;20031;-62
2022/09/15 14:32:15;;;;;;;;;;;16.80;99.90;;;;;;4900673;29;19919;-62
2022/09/15 14:34:42;;;;;;;;;;;17.20;99.90;;;;;;4914071;23;19958;-61
2022/09/15 14:37:14;;;;;;;;;;;17.00;99.90;;;;;;4900926;29;20276;-60
2022/09/15 14:39:42;;;;;;;;;;;;;;;;;;4900642;29;19931;-61
2022/09/15 14:42:21;;;;;;;;;;;16.60;99.90;;;;;;4900562;29;19923;-61
2022/09/15 14:44:47;;;;;;;;;;;16.50;99.90;;;;;;4900432;29;19919;-61
2022/09/15 14:47:20;;;;;;;;;;;16.70;99.90;;;;;;4900535;29;19923;-61
2022/09/15 14:49:46;;;;;;;;;;;;;;;;;;4900398;29;19923;-61
2022/09/15 14:52:21;;;;;;;;;;;17.20;99.90;;;;;;4909861;23;19967;-61